createdAt,value
2017-10-10T00:01:34.880Z,11.83
2017-10-10T00:04:03.171Z,13.90
2017-10-10T00:06:30.729Z,10.17
2017-10-10T00:08:58.262Z,11.13
2017-10-10T00:11:26.584Z,10.40
2017-10-10T00:13:54.119Z,14.87
2017-10-10T00:16:22.443Z,16.40
2017-10-10T00:18:49.979Z,11.40
2017-10-10T00:21:17.542Z,9.33
2017-10-10T00:23:45.083Z,11.10
2017-10-10T00:26:12.639Z,11.73
2017-10-10T00:28:40.181Z,13.03
2017-10-10T00:31:08.506Z,13.57
2017-10-10T00:33:36.054Z,10.20
2017-10-10T00:36:03.611Z,12.27
2017-10-10T00:38:31.921Z,12.40
2017-10-10T00:40:59.481Z,11.93
2017-10-10T00:43:27.035Z,16.40
2017-10-10T00:45:54.602Z,12.00
2017-10-10T00:48:22.150Z,10.60
2017-10-10T00:50:49.706Z,9.80
2017-10-10T00:53:17.240Z,12.03
2017-10-10T00:55:44.804Z,11.20
2017-10-10T00:58:12.343Z,13.40
2017-10-10T01:00:40.688Z,12.17
2017-10-10T01:03:08.223Z,12.80
2017-10-10T01:05:35.758Z,13.00
2017-10-10T01:08:03.315Z,10.40
2017-10-10T01:10:30.851Z,11.43
2017-10-10T01:12:59.175Z,11.53
2017-10-10T01:15:26.710Z,9.70
2017-10-10T01:17:54.274Z,10.13
2017-10-10T01:20:21.808Z,11.60
2017-10-10T01:22:50.134Z,10.70
2017-10-10T01:25:17.661Z,12.20
2017-10-10T01:27:45.223Z,12.47
2017-10-10T01:30:12.760Z,10.63
2017-10-10T01:32:41.099Z,13.97
2017-10-10T01:35:08.645Z,10.27
2017-10-10T01:37:36.199Z,13.70
2017-10-10T01:40:03.738Z,14.23
2017-10-10T01:42:31.295Z,13.23
2017-10-10T01:44:58.839Z,11.90
2017-10-10T01:47:27.167Z,12.13
2017-10-10T01:49:54.703Z,12.60
2017-10-10T01:52:22.254Z,10.40
2017-10-10T01:54:49.796Z,10.20
2017-10-10T01:57:18.127Z,10.37
2017-10-10T01:59:45.668Z,10.87
2017-10-10T02:02:13.223Z,16.13
2017-10-10T02:04:40.764Z,11.13
2017-10-10T02:07:08.312Z,14.63
2017-10-10T02:09:36.643Z,14.33
2017-10-10T02:12:04.183Z,14.70
2017-10-10T02:14:31.734Z,9.80
2017-10-10T02:16:59.285Z,14.20
2017-10-10T02:19:26.847Z,13.20
2017-10-10T02:21:54.379Z,9.83
2017-10-10T02:24:21.947Z,12.37
2017-10-10T02:26:50.247Z,11.40
2017-10-10T02:29:17.806Z,12.00
2017-10-10T02:31:45.344Z,12.80
2017-10-10T02:34:13.678Z,9.83
2017-10-10T02:36:41.205Z,9.10
2017-10-10T02:39:08.763Z,11.13
2017-10-10T02:41:36.298Z,12.00
2017-10-10T02:44:04.627Z,10.57
2017-10-10T02:46:32.164Z,12.60
2017-10-10T02:48:59.732Z,12.23
2017-10-10T02:51:27.267Z,10.33
2017-10-10T02:53:55.595Z,12.20
2017-10-10T02:56:23.128Z,14.30
2017-10-10T02:58:50.683Z,10.00
2017-10-10T03:01:18.221Z,9.57
2017-10-10T03:03:46.552Z,10.47
2017-10-10T03:06:14.087Z,9.07
2017-10-10T03:08:41.628Z,11.80
2017-10-10T03:11:09.189Z,13.43
2017-10-10T03:13:36.723Z,13.50
2017-10-10T03:16:04.288Z,11.60
2017-10-10T03:18:32.599Z,12.80
2017-10-10T03:21:00.156Z,10.63
2017-10-10T03:23:27.695Z,15.17
2017-10-10T03:25:56.024Z,15.13
2017-10-10T03:28:23.561Z,10.30
2017-10-10T03:30:51.125Z,9.73
2017-10-10T03:33:18.668Z,10.83
2017-10-10T03:35:46.234Z,10.57
2017-10-10T03:38:13.770Z,13.20
2017-10-10T03:40:42.096Z,14.37
2017-10-10T03:43:09.641Z,17.57
2017-10-10T03:45:37.213Z,11.90
2017-10-10T03:48:04.753Z,11.93
2017-10-10T03:50:32.315Z,11.77
2017-10-10T03:52:59.856Z,11.90
2017-10-10T03:55:27.425Z,12.43
2017-10-10T03:57:54.955Z,13.33
2017-10-10T04:00:22.507Z,11.50
2017-10-10T04:02:50.032Z,9.80
2017-10-10T04:05:17.591Z,10.40
2017-10-10T04:07:45.142Z,10.57
2017-10-10T04:10:12.705Z,12.20
2017-10-10T04:12:40.252Z,10.47
2017-10-10T04:15:07.789Z,12.53
2017-10-10T04:17:35.347Z,12.40
2017-10-10T04:20:03.656Z,14.30
2017-10-10T04:22:31.236Z,12.00
2017-10-10T04:24:58.778Z,9.27
2017-10-10T04:27:26.343Z,10.63
2017-10-10T04:29:53.879Z,12.03
2017-10-10T04:32:21.479Z,14.77
2017-10-10T04:34:49.019Z,17.97
2017-10-10T04:37:16.580Z,13.63
2017-10-10T04:39:44.118Z,13.50
2017-10-10T04:42:11.685Z,11.37
2017-10-10T04:44:39.215Z,12.40
2017-10-10T04:47:07.543Z,10.93
2017-10-10T04:49:35.080Z,14.73
2017-10-10T04:52:03.772Z,15.37
2017-10-10T04:54:31.451Z,13.80
2017-10-10T04:57:00.543Z,13.97
2017-10-10T04:59:28.103Z,15.23
2017-10-10T05:01:55.795Z,12.77
2017-10-10T05:04:23.736Z,13.73
2017-10-10T05:06:51.381Z,17.33
2017-10-10T05:09:18.922Z,15.43
2017-10-10T05:11:46.840Z,15.53
2017-10-10T05:14:14.390Z,17.60
2017-10-10T05:16:41.975Z,12.30
2017-10-10T05:19:09.535Z,14.10
2017-10-10T05:21:37.315Z,17.73
2017-10-10T05:24:05.663Z,14.53
2017-10-10T05:26:33.975Z,15.77
2017-10-10T05:29:02.300Z,15.00
2017-10-10T05:31:29.841Z,14.07
2017-10-10T05:33:57.407Z,14.73
2017-10-10T05:36:24.953Z,21.97
2017-10-10T05:38:52.511Z,16.43
2017-10-10T05:41:20.818Z,14.30
2017-10-10T05:43:48.398Z,15.53
2017-10-10T05:46:15.956Z,14.77
2017-10-10T05:48:44.289Z,16.20
2017-10-10T05:51:11.826Z,16.07
2017-10-10T05:53:40.155Z,21.93
2017-10-10T05:56:07.705Z,16.70
2017-10-10T05:58:36.018Z,20.73
2017-10-10T06:01:03.555Z,18.90
2017-10-10T06:03:31.126Z,20.30
2017-10-10T06:05:58.676Z,18.37
2017-10-10T06:08:26.252Z,17.87
2017-10-10T06:10:53.809Z,15.60
2017-10-10T06:13:21.400Z,20.63
2017-10-10T06:15:49.016Z,17.20
2017-10-10T06:18:16.549Z,15.50
2017-10-10T06:20:44.107Z,17.63
2017-10-10T06:23:11.654Z,18.23
2017-10-10T06:25:39.982Z,13.93
2017-10-10T06:28:07.511Z,14.93
2017-10-10T06:30:35.064Z,16.63
2017-10-10T06:33:02.600Z,14.90
2017-10-10T06:35:30.930Z,15.57
2017-10-10T06:37:58.463Z,15.30
2017-10-10T06:40:26.019Z,12.97
2017-10-10T06:42:53.560Z,13.63
2017-10-10T06:45:21.887Z,15.50
2017-10-10T06:47:49.430Z,15.93
2017-10-10T06:50:16.996Z,13.33
2017-10-10T06:52:44.534Z,14.80
2017-10-10T06:55:12.098Z,13.43
2017-10-10T06:57:39.635Z,11.10
2017-10-10T07:00:07.959Z,12.00
2017-10-10T07:02:35.495Z,11.20
2017-10-10T07:05:03.059Z,11.80
2017-10-10T07:07:30.595Z,12.83
2017-10-10T07:09:58.919Z,15.83
2017-10-10T07:12:26.460Z,13.33
2017-10-10T07:14:54.023Z,19.60
2017-10-10T07:17:21.551Z,14.50
2017-10-10T07:19:49.847Z,13.60
2017-10-10T07:22:17.411Z,16.97
2017-10-10T07:24:44.942Z,16.10
2017-10-10T07:27:13.267Z,14.70
2017-10-10T07:29:40.804Z,17.43
2017-10-10T07:32:08.359Z,16.17
2017-10-10T07:34:35.903Z,12.93
2017-10-10T07:37:04.236Z,15.30
2017-10-10T07:39:31.771Z,14.00
2017-10-10T07:41:59.336Z,16.83
2017-10-10T07:44:26.879Z,16.10
2017-10-10T07:46:54.444Z,15.50
2017-10-10T07:49:21.987Z,13.50
2017-10-10T07:51:50.314Z,15.90
2017-10-10T07:54:17.856Z,13.07
2017-10-10T07:56:45.419Z,15.17
2017-10-10T07:59:12.951Z,14.37
2017-10-10T08:01:41.282Z,17.60
2017-10-10T08:04:08.822Z,16.87
2017-10-10T08:06:36.383Z,16.07
2017-10-10T08:09:03.920Z,17.10
2017-10-10T08:11:31.478Z,15.77
2017-10-10T08:13:59.027Z,17.33
2017-10-10T08:16:26.603Z,16.57
2017-10-10T08:18:54.135Z,15.80
2017-10-10T08:21:22.482Z,18.30
2017-10-10T08:23:50.027Z,24.27
2017-10-10T08:26:17.564Z,18.40
2017-10-10T08:28:45.128Z,22.97
2017-10-10T08:31:12.661Z,18.10
2017-10-10T08:33:40.986Z,21.80
2017-10-10T08:36:09.303Z,15.70
2017-10-10T08:38:37.639Z,16.30
2017-10-10T08:41:05.192Z,15.73
2017-10-10T08:43:32.751Z,19.57
2017-10-10T08:46:00.326Z,17.60
2017-10-10T08:48:27.899Z,21.23
2017-10-10T08:50:55.477Z,15.33
2017-10-10T08:53:23.822Z,14.97
2017-10-10T08:55:51.366Z,13.80
2017-10-10T08:58:18.931Z,13.70
2017-10-10T09:00:46.467Z,15.07
2017-10-10T09:03:14.022Z,13.70
2017-10-10T09:05:41.551Z,12.03
2017-10-10T09:08:09.116Z,12.40
2017-10-10T09:10:37.423Z,11.63
2017-10-10T09:13:04.983Z,10.50
2017-10-10T09:15:32.518Z,11.53
2017-10-10T09:18:00.843Z,11.37
2017-10-10T09:20:28.380Z,10.40
2017-10-10T09:22:55.956Z,9.70
2017-10-10T09:25:23.492Z,9.37
2017-10-10T09:27:51.026Z,9.80
2017-10-10T09:30:19.348Z,10.53
2017-10-10T09:32:46.887Z,10.60
2017-10-10T09:35:14.454Z,12.47
2017-10-10T09:37:41.990Z,20.60
2017-10-10T09:40:10.346Z,13.63
2017-10-10T09:42:37.937Z,18.80
2017-10-10T09:45:06.250Z,12.63
2017-10-10T09:47:33.808Z,11.73
2017-10-10T09:50:01.376Z,12.80
2017-10-10T09:52:28.923Z,11.93
2017-10-10T09:54:56.484Z,12.80
2017-10-10T09:57:24.027Z,10.33
2017-10-10T09:59:51.595Z,13.93
2017-10-10T10:02:19.149Z,10.93
2017-10-10T10:04:46.708Z,10.23
2017-10-10T10:07:14.239Z,8.73
2017-10-10T10:09:41.795Z,9.33
2017-10-10T10:12:09.328Z,7.40
2017-10-10T10:14:36.891Z,8.17
2017-10-10T10:17:04.414Z,8.40
2017-10-10T10:19:31.962Z,7.00
2017-10-10T10:21:59.499Z,7.60
2017-10-10T10:24:27.828Z,7.67
2017-10-10T10:26:55.362Z,7.90
2017-10-10T10:29:22.891Z,7.40
2017-10-10T10:31:51.214Z,7.43
2017-10-10T10:34:18.759Z,11.67
2017-10-10T10:36:46.319Z,6.07
2017-10-10T10:39:13.856Z,5.90
2017-10-10T10:41:42.171Z,6.67
2017-10-10T10:44:09.700Z,7.30
2017-10-10T10:46:38.019Z,6.00
2017-10-10T10:49:05.551Z,6.23
2017-10-10T10:51:33.103Z,7.50
2017-10-10T10:54:01.392Z,6.03
2017-10-10T10:56:28.954Z,4.57
2017-10-10T10:58:56.492Z,6.20
2017-10-10T11:01:24.059Z,6.50
2017-10-10T11:03:52.346Z,5.57
2017-10-10T11:06:19.900Z,5.40
2017-10-10T11:08:47.438Z,5.43
2017-10-10T11:11:15.771Z,6.13
2017-10-10T11:13:44.071Z,6.60
2017-10-10T11:16:11.633Z,5.77
2017-10-10T11:18:39.171Z,5.73
2017-10-10T11:21:06.722Z,5.60
2017-10-10T11:23:34.259Z,6.03
2017-10-10T11:26:01.820Z,5.67
2017-10-10T11:28:29.343Z,5.77
2017-10-10T11:30:57.691Z,6.87
2017-10-10T11:33:25.229Z,5.37
2017-10-10T11:35:52.755Z,5.13
2017-10-10T11:38:21.071Z,5.10
2017-10-10T11:40:48.601Z,4.40
2017-10-10T11:43:16.921Z,4.87
2017-10-10T11:45:45.220Z,5.00
2017-10-10T11:48:12.775Z,4.83
2017-10-10T11:50:40.307Z,4.60
2017-10-10T11:53:07.856Z,5.90
2017-10-10T11:55:35.388Z,9.53
2017-10-10T11:58:03.712Z,6.57
2017-10-10T12:00:31.239Z,4.50
2017-10-10T12:02:58.796Z,6.40
2017-10-10T12:05:26.332Z,5.20
2017-10-10T12:07:53.887Z,4.60
2017-10-10T12:10:21.420Z,4.80
2017-10-10T12:12:48.980Z,5.30
2017-10-10T12:15:16.521Z,6.30
2017-10-10T12:17:44.075Z,4.50
2017-10-10T12:20:11.603Z,7.40
2017-10-10T12:22:39.928Z,5.40
2017-10-10T12:25:07.468Z,5.53
2017-10-10T12:27:35.030Z,5.67
2017-10-10T12:30:02.562Z,5.97
2017-10-10T12:32:30.879Z,9.80
2017-10-10T12:34:58.402Z,6.10
2017-10-10T12:37:26.722Z,4.70
2017-10-10T12:39:54.286Z,4.90
2017-10-10T12:42:21.828Z,4.90
2017-10-10T12:44:49.396Z,5.67
2017-10-10T12:47:16.942Z,5.83
2017-10-10T12:49:44.501Z,4.70
2017-10-10T12:52:12.027Z,4.57
2017-10-10T12:54:40.361Z,5.13
2017-10-10T12:57:07.906Z,4.43
2017-10-10T12:59:35.463Z,4.70
2017-10-10T13:02:03.003Z,5.30
2017-10-10T13:04:30.570Z,5.90
2017-10-10T13:06:58.095Z,4.57
2017-10-10T13:09:26.425Z,4.53
2017-10-10T13:11:53.960Z,5.73
2017-10-10T13:14:21.519Z,4.20
2017-10-10T13:16:49.050Z,3.90
2017-10-10T13:19:17.380Z,4.33
2017-10-10T13:21:44.912Z,4.30
2017-10-10T13:24:12.459Z,4.40
2017-10-10T13:26:40.756Z,4.50
2017-10-10T13:29:08.315Z,4.27
2017-10-10T13:31:35.848Z,4.70
2017-10-10T13:34:04.172Z,5.20
2017-10-10T13:36:31.732Z,4.57
2017-10-10T13:38:59.271Z,6.73
2017-10-10T13:41:26.823Z,3.80
2017-10-10T13:43:54.357Z,4.43
2017-10-10T13:46:22.680Z,5.10
2017-10-10T13:48:50.223Z,4.77
2017-10-10T13:51:17.779Z,4.63
2017-10-10T13:53:45.321Z,6.20
2017-10-10T13:56:13.643Z,7.13
2017-10-10T13:58:41.178Z,5.37
2017-10-10T14:01:08.731Z,6.70
2017-10-10T14:03:37.033Z,5.97
2017-10-10T14:06:04.596Z,4.90
2017-10-10T14:08:32.128Z,5.63
2017-10-10T14:11:00.458Z,5.40
2017-10-10T14:13:27.998Z,7.80
2017-10-10T14:15:55.566Z,6.57
2017-10-10T14:18:23.102Z,10.63
2017-10-10T14:20:50.657Z,7.07
2017-10-10T14:23:18.188Z,7.10
2017-10-10T14:25:46.516Z,8.53
2017-10-10T14:28:14.058Z,7.37
2017-10-10T14:30:41.615Z,5.27
2017-10-10T14:33:09.144Z,8.10
2017-10-10T14:35:37.472Z,6.03
2017-10-10T14:38:05.008Z,5.80
2017-10-10T14:40:32.540Z,9.37
2017-10-10T14:43:00.860Z,7.43
2017-10-10T14:45:28.392Z,8.50
2017-10-10T14:47:56.719Z,6.80
2017-10-10T14:50:24.252Z,7.50
2017-10-10T14:52:51.811Z,6.70
2017-10-10T14:55:19.342Z,10.63
2017-10-10T14:57:47.667Z,11.47
2017-10-10T15:00:15.202Z,9.67
2017-10-10T15:02:42.758Z,10.80
2017-10-10T15:05:10.291Z,8.27
2017-10-10T15:07:38.614Z,7.90
2017-10-10T15:10:06.149Z,6.30
2017-10-10T15:12:33.718Z,13.37
2017-10-10T15:15:01.253Z,9.67
2017-10-10T15:17:29.583Z,8.07
2017-10-10T15:19:57.117Z,9.73
2017-10-10T15:22:24.670Z,6.30
2017-10-10T15:24:52.208Z,7.90
2017-10-10T15:27:20.527Z,6.97
2017-10-10T15:29:48.055Z,6.17
2017-10-10T15:32:16.383Z,5.27
2017-10-10T15:34:43.915Z,6.60
2017-10-10T15:37:11.473Z,4.87
2017-10-10T15:39:39.007Z,7.00
2017-10-10T15:42:07.303Z,6.13
2017-10-10T15:44:34.856Z,8.60
2017-10-10T15:47:02.395Z,5.23
2017-10-10T15:49:30.722Z,6.87
2017-10-10T15:51:58.277Z,7.17
2017-10-10T15:54:25.836Z,6.77
2017-10-10T15:56:53.366Z,5.33
2017-10-10T15:59:20.927Z,5.07
2017-10-10T16:01:49.234Z,5.53
2017-10-10T16:04:16.789Z,5.17
2017-10-10T16:06:44.323Z,7.70
2017-10-10T16:09:11.875Z,6.83
2017-10-10T16:11:40.167Z,5.47
2017-10-10T16:14:07.727Z,6.23
2017-10-10T16:16:35.263Z,5.50
2017-10-10T16:19:03.589Z,6.37
2017-10-10T16:21:31.130Z,6.07
2017-10-10T16:23:58.701Z,6.17
2017-10-10T16:26:26.999Z,6.83
2017-10-10T16:28:54.560Z,5.00
2017-10-10T16:31:22.090Z,7.00
2017-10-10T16:33:49.645Z,8.03
2017-10-10T16:36:17.188Z,6.47
2017-10-10T16:38:45.514Z,7.27
2017-10-10T16:41:13.084Z,6.23
2017-10-10T16:43:40.669Z,6.83
2017-10-10T16:46:08.200Z,6.63
2017-10-10T16:48:35.768Z,5.87
2017-10-10T16:51:03.379Z,6.47
2017-10-10T16:53:30.919Z,7.27
2017-10-10T16:55:59.519Z,6.27
2017-10-10T16:58:27.098Z,9.00
2017-10-10T17:00:54.820Z,7.70
2017-10-10T17:03:23.132Z,6.97
2017-10-10T17:05:50.707Z,6.43
2017-10-10T17:08:18.249Z,5.90
2017-10-10T17:10:45.808Z,6.17
2017-10-10T17:13:13.347Z,6.50
2017-10-10T17:15:41.667Z,7.47
2017-10-10T17:18:09.203Z,7.80
2017-10-10T17:20:36.773Z,7.93
2017-10-10T17:23:04.326Z,6.83
2017-10-10T17:25:31.897Z,7.93
2017-10-10T17:27:59.426Z,7.37
2017-10-10T17:30:27.749Z,9.33
2017-10-10T17:32:55.279Z,9.10
2017-10-10T17:35:22.881Z,7.57
2017-10-10T17:37:50.459Z,7.13
2017-10-10T17:40:18.033Z,12.10
2017-10-10T17:42:46.583Z,7.70
2017-10-10T17:45:15.148Z,9.00
2017-10-10T17:47:42.690Z,11.23
2017-10-10T17:50:10.224Z,6.40
2017-10-10T17:52:38.543Z,7.63
2017-10-10T17:55:06.075Z,7.90
2017-10-10T17:57:33.644Z,6.10
2017-10-10T18:00:01.190Z,13.73
2017-10-10T18:02:29.521Z,12.30
2017-10-10T18:04:57.079Z,15.90
2017-10-10T18:07:24.628Z,9.53
2017-10-10T18:09:52.184Z,11.70
2017-10-10T18:12:19.747Z,6.70
2017-10-10T18:14:47.310Z,9.73
2017-10-10T18:17:14.867Z,6.80
2017-10-10T18:19:42.407Z,6.03
2017-10-10T18:22:09.958Z,6.90
2017-10-10T18:24:37.495Z,5.93
2017-10-10T18:27:05.820Z,7.20
2017-10-10T18:29:33.359Z,8.50
2017-10-10T18:32:00.923Z,6.87
2017-10-10T18:34:28.451Z,6.10
2017-10-10T18:36:56.787Z,11.17
2017-10-10T18:39:24.318Z,9.70
2017-10-10T18:41:51.872Z,6.87
2017-10-10T18:44:19.403Z,7.93
2017-10-10T18:46:47.811Z,6.93
2017-10-10T18:49:15.353Z,9.77
2017-10-10T18:51:43.661Z,7.50
2017-10-10T18:54:11.223Z,7.37
2017-10-10T18:56:38.753Z,9.10
2017-10-10T18:59:07.114Z,8.00
2017-10-10T19:01:35.471Z,9.73
2017-10-10T19:04:03.169Z,9.43
2017-10-10T19:06:31.466Z,8.73
2017-10-10T19:08:59.035Z,10.50
2017-10-10T19:11:26.576Z,10.10
2017-10-10T19:13:54.144Z,11.80
2017-10-10T19:16:21.709Z,7.80
2017-10-10T19:18:49.286Z,9.83
2017-10-10T19:21:16.830Z,11.20
2017-10-10T19:23:44.410Z,9.03
2017-10-10T19:26:12.011Z,8.50
2017-10-10T19:28:40.544Z,14.03
2017-10-10T19:31:08.084Z,9.50
2017-10-10T19:33:35.645Z,9.27
2017-10-10T19:36:03.244Z,10.10
2017-10-10T19:38:30.820Z,10.83
2017-10-10T19:40:58.358Z,11.73
2017-10-10T19:43:25.946Z,7.10
2017-10-10T19:45:53.522Z,8.73
2017-10-10T19:48:21.853Z,8.33
2017-10-10T19:50:49.379Z,7.90
2017-10-10T19:53:16.946Z,15.90
2017-10-10T19:55:44.503Z,9.30
2017-10-10T19:58:21.946Z,9.07
2017-10-10T20:00:49.509Z,10.27
2017-10-10T20:03:17.039Z,8.53
2017-10-10T20:05:44.600Z,9.70
2017-10-10T20:08:12.147Z,10.20
2017-10-10T20:10:39.700Z,7.90
2017-10-10T20:13:07.242Z,8.73
2017-10-10T20:15:35.558Z,8.43
2017-10-10T20:18:03.090Z,9.77
2017-10-10T20:20:30.651Z,11.13
2017-10-10T20:22:58.232Z,8.87
2017-10-10T20:25:25.793Z,8.43
2017-10-10T20:27:53.326Z,8.80
2017-10-10T20:30:20.884Z,7.13
2017-10-10T20:32:49.173Z,8.83
2017-10-10T20:35:16.803Z,8.27
2017-10-10T20:37:44.331Z,8.37
2017-10-10T20:40:11.890Z,10.60
2017-10-10T20:42:39.428Z,9.53
2017-10-10T20:45:07.001Z,13.60
2017-10-10T20:47:34.538Z,9.83
2017-10-10T20:50:02.105Z,9.53
2017-10-10T20:52:29.651Z,9.73
2017-10-10T20:54:57.211Z,8.73
2017-10-10T20:57:24.752Z,10.50
2017-10-10T20:59:53.078Z,9.27
2017-10-10T21:02:20.625Z,8.93
2017-10-10T21:04:48.151Z,8.13
2017-10-10T21:07:16.473Z,12.20
2017-10-10T21:09:44.000Z,8.37
2017-10-10T21:12:11.555Z,9.87
2017-10-10T21:14:39.097Z,9.60
2017-10-10T21:17:07.428Z,8.07
2017-10-10T21:19:34.968Z,11.00
2017-10-10T21:22:02.523Z,10.03
2017-10-10T21:24:30.059Z,12.43
2017-10-10T21:26:58.393Z,8.17
2017-10-10T21:29:25.938Z,10.10
2017-10-10T21:31:53.499Z,11.43
2017-10-10T21:34:21.034Z,8.27
2017-10-10T21:36:48.594Z,8.83
2017-10-10T21:39:16.139Z,7.20
2017-10-10T21:41:44.463Z,8.57
2017-10-10T21:44:11.995Z,9.63
2017-10-10T21:46:39.550Z,11.30
2017-10-10T21:49:07.096Z,10.60
2017-10-10T21:51:35.426Z,13.67
2017-10-10T21:54:02.954Z,9.80
2017-10-10T21:56:30.523Z,10.63
2017-10-10T21:58:58.058Z,8.83
2017-10-10T22:01:25.622Z,10.93
2017-10-10T22:03:53.155Z,9.07
2017-10-10T22:06:20.714Z,9.63
2017-10-10T22:08:48.251Z,8.93
2017-10-10T22:11:15.787Z,10.47
2017-10-10T22:13:43.344Z,9.73
2017-10-10T22:16:10.887Z,11.90
2017-10-10T22:18:38.439Z,9.67
2017-10-10T22:21:05.978Z,9.63
2017-10-10T22:23:34.317Z,9.30
2017-10-10T22:26:01.880Z,13.93
2017-10-10T22:28:29.439Z,8.20
2017-10-10T22:52:30.127Z,10.03
2017-10-10T22:54:57.686Z,9.20
2017-10-10T22:57:25.994Z,8.77
2017-10-10T23:00:04.530Z,10.20
2017-10-10T23:02:32.067Z,14.20
2017-10-10T23:04:59.631Z,11.60
2017-10-10T23:07:27.927Z,8.67
2017-10-10T23:09:55.486Z,11.93
2017-10-10T23:12:23.778Z,12.50
2017-10-10T23:14:51.336Z,8.63
2017-10-10T23:17:18.873Z,11.60
2017-10-10T23:19:47.210Z,7.47
2017-10-10T23:22:14.745Z,9.40
2017-10-10T23:24:42.309Z,8.30
2017-10-10T23:27:09.842Z,10.00
2017-10-10T23:29:37.404Z,8.50
2017-10-10T23:32:04.936Z,6.77
2017-10-10T23:34:32.495Z,8.00
2017-10-10T23:37:00.028Z,8.63
2017-10-10T23:39:49.181Z,8.20
2017-10-10T23:42:16.719Z,6.53
2017-10-10T23:44:44.280Z,7.73
2017-10-10T23:47:11.818Z,7.00
2017-10-10T23:49:39.375Z,7.50
2017-10-10T23:52:07.676Z,9.23
2017-10-10T23:54:35.235Z,6.27
2017-10-10T23:57:02.775Z,10.60
2017-10-10T23:59:31.106Z,6.27
